sensor_id;sensor_type;location;lat;lon;timestamp;temperature;humidity
53073;DHT22;38955;48.916;2.336;2023-12-29T00:01:03;9.90;99.90
53073;DHT22;38955;48.916;2.336;2023-12-29T00:03:05;9.90;99.90
53073;DHT22;38955;48.916;2.336;2023-12-29T00:05:08;10.00;99.90
53073;DHT22;38955;48.916;2.336;2023-12-29T00:07:10;10.00;99.90
53073;DHT22;38955;48.916;2.336;2023-12-29T00:09:14;10.00;99.90
53073;DHT22;38955;48.916;2.336;2023-12-29T00:11:17;10.00;99.90
53073;DHT22;38955;48.916;2.336;2023-12-29T00:13:19;10.10;99.90
53073;DHT22;38955;48.916;2.336;2023-12-29T00:15:26;10.10;99.90
53073;DHT22;38955;48.916;2.336;2023-12-29T00:17:28;10.10;99.90
53073;DHT22;38955;48.916;2.336;2023-12-29T00:19:30;10.20;99.90
53073;DHT22;38955;48.916;2.336;2023-12-29T00:21:32;10.20;99.90
53073;DHT22;38955;48.916;2.336;2023-12-29T00:23:34;10.20;99.90
53073;DHT22;38955;48.916;2.336;2023-12-29T00:25:37;10.20;99.90
53073;DHT22;38955;48.916;2.336;2023-12-29T00:27:39;10.30;99.90
53073;DHT22;38955;48.916;2.336;2023-12-29T00:29:41;10.30;99.90
53073;DHT22;38955;48.916;2.336;2023-12-29T00:31:45;10.30;99.90
53073;DHT22;38955;48.916;2.336;2023-12-29T00:33:47;10.30;99.90
53073;DHT22;38955;48.916;2.336;2023-12-29T00:35:49;10.40;99.90
53073;DHT22;38955;48.916;2.336;2023-12-29T00:37:52;10.40;99.90
53073;DHT22;38955;48.916;2.336;2023-12-29T00:39:54;10.40;99.90
53073;DHT22;38955;48.916;2.336;2023-12-29T00:41:56;10.50;99.90
53073;DHT22;38955;48.916;2.336;2023-12-29T00:43:59;10.40;99.90
53073;DHT22;38955;48.916;2.336;2023-12-29T00:46:01;10.40;99.90
53073;DHT22;38955;48.916;2.336;2023-12-29T00:48:05;10.50;99.90
53073;DHT22;38955;48.916;2.336;2023-12-29T00:50:09;10.50;99.90
53073;DHT22;38955;48.916;2.336;2023-12-29T00:52:11;10.50;99.90
53073;DHT22;38955;48.916;2.336;2023-12-29T00:54:13;10.50;99.90
53073;DHT22;38955;48.916;2.336;2023-12-29T00:56:15;10.50;99.90
53073;DHT22;38955;48.916;2.336;2023-12-29T00:58:18;10.50;99.90
53073;DHT22;38955;48.916;2.336;2023-12-29T01:00:20;10.60;99.90
53073;DHT22;38955;48.916;2.336;2023-12-29T01:02:22;10.60;99.90
53073;DHT22;38955;48.916;2.336;2023-12-29T01:04:26;10.60;99.90
53073;DHT22;38955;48.916;2.336;2023-12-29T01:06:28;10.60;99.90
53073;DHT22;38955;48.916;2.336;2023-12-29T01:08:30;10.60;99.90
53073;DHT22;38955;48.916;2.336;2023-12-29T01:10:32;10.60;99.90
53073;DHT22;38955;48.916;2.336;2023-12-29T01:12:34;10.60;99.90
53073;DHT22;38955;48.916;2.336;2023-12-29T01:14:37;10.60;99.90
53073;DHT22;38955;48.916;2.336;2023-12-29T01:16:39;10.60;99.90
53073;DHT22;38955;48.916;2.336;2023-12-29T01:18:41;10.60;99.90
53073;DHT22;38955;48.916;2.336;2023-12-29T01:20:45;10.60;99.90
53073;DHT22;38955;48.916;2.336;2023-12-29T01:22:47;10.60;99.90
53073;DHT22;38955;48.916;2.336;2023-12-29T01:24:49;10.60;99.90
53073;DHT22;38955;48.916;2.336;2023-12-29T01:26:52;10.60;99.90
53073;DHT22;38955;48.916;2.336;2023-12-29T01:28:54;10.70;99.90
53073;DHT22;38955;48.916;2.336;2023-12-29T01:30:56;10.70;99.90
53073;DHT22;38955;48.916;2.336;2023-12-29T01:32:58;10.70;99.90
53073;DHT22;38955;48.916;2.336;2023-12-29T01:35:01;10.60;99.90
53073;DHT22;38955;48.916;2.336;2023-12-29T01:37:04;10.60;99.90
53073;DHT22;38955;48.916;2.336;2023-12-29T01:39:07;10.60;99.90
53073;DHT22;38955;48.916;2.336;2023-12-29T01:41:09;10.60;99.90
53073;DHT22;38955;48.916;2.336;2023-12-29T01:43:12;10.60;99.90
53073;DHT22;38955;48.916;2.336;2023-12-29T01:45:20;10.60;99.90
53073;DHT22;38955;48.916;2.336;2023-12-29T01:47:23;10.60;99.90
53073;DHT22;38955;48.916;2.336;2023-12-29T01:49:25;10.60;99.90
53073;DHT22;38955;48.916;2.336;2023-12-29T01:51:27;10.70;99.90
53073;DHT22;38955;48.916;2.336;2023-12-29T01:53:32;10.60;99.90
53073;DHT22;38955;48.916;2.336;2023-12-29T01:55:46;10.70;99.90
53073;DHT22;38955;48.916;2.336;2023-12-29T01:57:48;10.70;99.90
53073;DHT22;38955;48.916;2.336;2023-12-29T01:59:51;10.70;99.90
53073;DHT22;38955;48.916;2.336;2023-12-29T02:01:54;10.70;99.90
53073;DHT22;38955;48.916;2.336;2023-12-29T02:03:58;10.70;99.90
53073;DHT22;38955;48.916;2.336;2023-12-29T02:06:00;10.70;99.90
53073;DHT22;38955;48.916;2.336;2023-12-29T02:08:04;10.70;99.90
53073;DHT22;38955;48.916;2.336;2023-12-29T02:10:12;10.70;99.90
53073;DHT22;38955;48.916;2.336;2023-12-29T02:12:17;10.70;99.90
53073;DHT22;38955;48.916;2.336;2023-12-29T02:14:25;10.80;99.90
53073;DHT22;38955;48.916;2.336;2023-12-29T02:16:35;10.80;99.90
53073;DHT22;38955;48.916;2.336;2023-12-29T02:18:39;10.70;99.90
53073;DHT22;38955;48.916;2.336;2023-12-29T02:20:44;10.80;99.90
53073;DHT22;38955;48.916;2.336;2023-12-29T02:22:46;10.80;99.90
53073;DHT22;38955;48.916;2.336;2023-12-29T02:24:54;10.80;99.90
53073;DHT22;38955;48.916;2.336;2023-12-29T02:27:00;10.80;99.90
53073;DHT22;38955;48.916;2.336;2023-12-29T02:29:07;10.80;99.90
53073;DHT22;38955;48.916;2.336;2023-12-29T02:31:19;10.80;99.90
53073;DHT22;38955;48.916;2.336;2023-12-29T02:33:23;10.80;99.90
53073;DHT22;38955;48.916;2.336;2023-12-29T02:35:28;10.80;99.90
53073;DHT22;38955;48.916;2.336;2023-12-29T02:37:32;10.80;99.90
53073;DHT22;38955;48.916;2.336;2023-12-29T02:39:35;10.80;99.90
53073;DHT22;38955;48.916;2.336;2023-12-29T02:41:39;10.80;99.90
53073;DHT22;38955;48.916;2.336;2023-12-29T02:43:41;10.80;99.90
53073;DHT22;38955;48.916;2.336;2023-12-29T02:45:43;10.80;99.90
53073;DHT22;38955;48.916;2.336;2023-12-29T02:47:46;10.80;99.90
53073;DHT22;38955;48.916;2.336;2023-12-29T02:49:48;10.80;99.90
53073;DHT22;38955;48.916;2.336;2023-12-29T02:51:52;10.80;99.90
53073;DHT22;38955;48.916;2.336;2023-12-29T02:53:54;10.70;99.90
53073;DHT22;38955;48.916;2.336;2023-12-29T02:55:56;10.70;99.90
53073;DHT22;38955;48.916;2.336;2023-12-29T02:57:59;10.70;99.90
53073;DHT22;38955;48.916;2.336;2023-12-29T03:00:02;10.70;99.90
53073;DHT22;38955;48.916;2.336;2023-12-29T03:02:05;10.70;99.90
53073;DHT22;38955;48.916;2.336;2023-12-29T03:04:08;10.70;99.90
53073;DHT22;38955;48.916;2.336;2023-12-29T03:06:10;10.70;99.90
53073;DHT22;38955;48.916;2.336;2023-12-29T03:08:12;10.70;99.90
53073;DHT22;38955;48.916;2.336;2023-12-29T03:10:14;10.70;99.90
53073;DHT22;38955;48.916;2.336;2023-12-29T03:12:16;10.70;99.90
53073;DHT22;38955;48.916;2.336;2023-12-29T03:14:20;10.70;99.90
53073;DHT22;38955;48.916;2.336;2023-12-29T03:16:22;10.60;99.90
53073;DHT22;38955;48.916;2.336;2023-12-29T03:18:24;10.70;99.90
53073;DHT22;38955;48.916;2.336;2023-12-29T03:20:26;10.70;99.90
53073;DHT22;38955;48.916;2.336;2023-12-29T03:22:28;10.70;99.90
53073;DHT22;38955;48.916;2.336;2023-12-29T03:24:30;10.70;99.90
53073;DHT22;38955;48.916;2.336;2023-12-29T03:26:32;10.70;99.90
53073;DHT22;38955;48.916;2.336;2023-12-29T03:28:34;10.70;99.90
53073;DHT22;38955;48.916;2.336;2023-12-29T03:30:38;10.80;99.90
53073;DHT22;38955;48.916;2.336;2023-12-29T03:32:40;10.80;99.90
53073;DHT22;38955;48.916;2.336;2023-12-29T03:34:42;10.80;99.90
53073;DHT22;38955;48.916;2.336;2023-12-29T03:36:44;10.80;99.90
53073;DHT22;38955;48.916;2.336;2023-12-29T03:38:46;10.80;99.90
53073;DHT22;38955;48.916;2.336;2023-12-29T03:40:49;10.80;99.90
53073;DHT22;38955;48.916;2.336;2023-12-29T03:42:50;10.80;99.90
53073;DHT22;38955;48.916;2.336;2023-12-29T03:44:52;10.80;99.90
53073;DHT22;38955;48.916;2.336;2023-12-29T03:46:56;10.80;99.90
53073;DHT22;38955;48.916;2.336;2023-12-29T03:48:58;10.80;99.90
53073;DHT22;38955;48.916;2.336;2023-12-29T03:51:01;10.80;99.90
53073;DHT22;38955;48.916;2.336;2023-12-29T03:53:03;10.80;99.90
53073;DHT22;38955;48.916;2.336;2023-12-29T03:55:06;10.80;99.90
53073;DHT22;38955;48.916;2.336;2023-12-29T03:57:08;10.80;99.90
53073;DHT22;38955;48.916;2.336;2023-12-29T03:59:12;10.80;99.90
53073;DHT22;38955;48.916;2.336;2023-12-29T04:01:15;10.80;99.90
53073;DHT22;38955;48.916;2.336;2023-12-29T04:03:19;10.90;99.90
53073;DHT22;38955;48.916;2.336;2023-12-29T04:05:21;10.80;99.90
53073;DHT22;38955;48.916;2.336;2023-12-29T04:07:23;10.90;99.90
53073;DHT22;38955;48.916;2.336;2023-12-29T04:09:25;10.80;99.90
53073;DHT22;38955;48.916;2.336;2023-12-29T04:11:28;10.90;99.90
53073;DHT22;38955;48.916;2.336;2023-12-29T04:13:30;10.90;99.90
53073;DHT22;38955;48.916;2.336;2023-12-29T04:15:32;10.90;99.90
53073;DHT22;38955;48.916;2.336;2023-12-29T04:17:35;10.90;99.90
53073;DHT22;38955;48.916;2.336;2023-12-29T04:19:39;10.90;99.90
53073;DHT22;38955;48.916;2.336;2023-12-29T04:21:41;10.90;99.90
53073;DHT22;38955;48.916;2.336;2023-12-29T04:23:43;10.90;99.90
53073;DHT22;38955;48.916;2.336;2023-12-29T04:25:45;10.90;99.90
53073;DHT22;38955;48.916;2.336;2023-12-29T04:27:47;10.90;99.90
53073;DHT22;38955;48.916;2.336;2023-12-29T04:29:50;10.90;99.90
53073;DHT22;38955;48.916;2.336;2023-12-29T04:31:53;10.90;99.90
53073;DHT22;38955;48.916;2.336;2023-12-29T04:33:55;10.90;99.90
53073;DHT22;38955;48.916;2.336;2023-12-29T04:35:58;10.90;99.90
53073;DHT22;38955;48.916;2.336;2023-12-29T04:38:03;10.90;99.90
53073;DHT22;38955;48.916;2.336;2023-12-29T04:40:06;10.90;99.90
53073;DHT22;38955;48.916;2.336;2023-12-29T04:42:09;10.90;99.90
53073;DHT22;38955;48.916;2.336;2023-12-29T04:44:11;10.90;99.90
53073;DHT22;38955;48.916;2.336;2023-12-29T04:46:13;11.00;99.90
53073;DHT22;38955;48.916;2.336;2023-12-29T04:48:15;11.00;99.90
53073;DHT22;38955;48.916;2.336;2023-12-29T04:50:18;11.00;99.90
53073;DHT22;38955;48.916;2.336;2023-12-29T04:52:21;11.00;99.90
53073;DHT22;38955;48.916;2.336;2023-12-29T04:54:24;10.90;99.90
53073;DHT22;38955;48.916;2.336;2023-12-29T04:56:26;11.00;99.90
53073;DHT22;38955;48.916;2.336;2023-12-29T04:58:28;11.00;99.90
53073;DHT22;38955;48.916;2.336;2023-12-29T05:00:30;10.90;99.90
53073;DHT22;38955;48.916;2.336;2023-12-29T05:02:32;10.90;99.90
53073;DHT22;38955;48.916;2.336;2023-12-29T05:04:34;11.00;99.90
53073;DHT22;38955;48.916;2.336;2023-12-29T05:06:36;11.00;99.90
53073;DHT22;38955;48.916;2.336;2023-12-29T05:08:40;11.00;99.90
53073;DHT22;38955;48.916;2.336;2023-12-29T05:10:42;11.00;99.90
53073;DHT22;38955;48.916;2.336;2023-12-29T05:12:45;11.00;99.90
53073;DHT22;38955;48.916;2.336;2023-12-29T05:14:47;10.90;99.90
53073;DHT22;38955;48.916;2.336;2023-12-29T05:16:49;10.90;99.90
53073;DHT22;38955;48.916;2.336;2023-12-29T05:18:51;11.00;99.90
53073;DHT22;38955;48.916;2.336;2023-12-29T05:20:53;11.00;99.90
53073;DHT22;38955;48.916;2.336;2023-12-29T05:22:55;11.00;99.90
53073;DHT22;38955;48.916;2.336;2023-12-29T05:24:59;11.00;99.90
53073;DHT22;38955;48.916;2.336;2023-12-29T05:27:02;11.00;99.90
53073;DHT22;38955;48.916;2.336;2023-12-29T05:29:04;11.00;99.90
53073;DHT22;38955;48.916;2.336;2023-12-29T05:31:06;10.90;99.90
53073;DHT22;38955;48.916;2.336;2023-12-29T05:33:10;11.00;99.90
53073;DHT22;38955;48.916;2.336;2023-12-29T05:35:12;11.00;99.90
53073;DHT22;38955;48.916;2.336;2023-12-29T05:37:14;11.00;99.90
53073;DHT22;38955;48.916;2.336;2023-12-29T05:39:16;11.00;99.90
53073;DHT22;38955;48.916;2.336;2023-12-29T05:41:20;11.00;99.90
53073;DHT22;38955;48.916;2.336;2023-12-29T05:43:22;11.00;99.90
53073;DHT22;38955;48.916;2.336;2023-12-29T05:45:24;11.00;99.90
53073;DHT22;38955;48.916;2.336;2023-12-29T05:47:26;11.00;99.90
53073;DHT22;38955;48.916;2.336;2023-12-29T05:49:29;11.10;99.90
53073;DHT22;38955;48.916;2.336;2023-12-29T05:51:31;11.00;99.90
53073;DHT22;38955;48.916;2.336;2023-12-29T05:53:33;11.00;99.90
53073;DHT22;38955;48.916;2.336;2023-12-29T05:55:35;11.00;99.90
53073;DHT22;38955;48.916;2.336;2023-12-29T05:57:39;11.00;99.90
53073;DHT22;38955;48.916;2.336;2023-12-29T05:59:41;11.00;99.90
53073;DHT22;38955;48.916;2.336;2023-12-29T06:01:43;11.10;99.90
53073;DHT22;38955;48.916;2.336;2023-12-29T06:03:45;11.00;99.90
53073;DHT22;38955;48.916;2.336;2023-12-29T06:05:48;11.10;99.90
53073;DHT22;38955;48.916;2.336;2023-12-29T06:07:50;11.10;99.90
53073;DHT22;38955;48.916;2.336;2023-12-29T06:09:52;11.10;99.90
53073;DHT22;38955;48.916;2.336;2023-12-29T06:11:55;11.00;99.90
53073;DHT22;38955;48.916;2.336;2023-12-29T06:13:58;11.00;99.90
53073;DHT22;38955;48.916;2.336;2023-12-29T06:16:00;11.10;99.90
53073;DHT22;38955;48.916;2.336;2023-12-29T06:18:03;11.10;99.90
53073;DHT22;38955;48.916;2.336;2023-12-29T06:20:06;11.00;99.90
53073;DHT22;38955;48.916;2.336;2023-12-29T06:22:09;11.10;99.90
53073;DHT22;38955;48.916;2.336;2023-12-29T06:24:13;11.00;99.90
53073;DHT22;38955;48.916;2.336;2023-12-29T06:26:16;11.10;99.90
53073;DHT22;38955;48.916;2.336;2023-12-29T06:28:18;11.00;99.90
53073;DHT22;38955;48.916;2.336;2023-12-29T06:30:22;11.10;99.90
53073;DHT22;38955;48.916;2.336;2023-12-29T06:32:24;11.00;99.90
53073;DHT22;38955;48.916;2.336;2023-12-29T06:34:26;11.00;99.90
53073;DHT22;38955;48.916;2.336;2023-12-29T06:36:29;11.00;99.90
53073;DHT22;38955;48.916;2.336;2023-12-29T06:38:31;11.10;99.90
53073;DHT22;38955;48.916;2.336;2023-12-29T06:40:35;11.00;99.90
53073;DHT22;38955;48.916;2.336;2023-12-29T06:42:37;11.10;99.90
53073;DHT22;38955;48.916;2.336;2023-12-29T06:44:39;11.10;99.90
53073;DHT22;38955;48.916;2.336;2023-12-29T06:46:43;11.00;99.90
53073;DHT22;38955;48.916;2.336;2023-12-29T06:48:45;11.00;99.90
53073;DHT22;38955;48.916;2.336;2023-12-29T06:50:47;11.00;99.90
53073;DHT22;38955;48.916;2.336;2023-12-29T06:52:49;11.00;99.90
53073;DHT22;38955;48.916;2.336;2023-12-29T06:54:51;11.10;99.90
53073;DHT22;38955;48.916;2.336;2023-12-29T06:56:53;11.10;99.90
53073;DHT22;38955;48.916;2.336;2023-12-29T06:58:55;11.10;99.90
53073;DHT22;38955;48.916;2.336;2023-12-29T07:00:58;11.10;99.90
53073;DHT22;38955;48.916;2.336;2023-12-29T07:03:02;11.10;99.90
53073;DHT22;38955;48.916;2.336;2023-12-29T07:05:05;11.10;99.90
53073;DHT22;38955;48.916;2.336;2023-12-29T07:07:07;11.10;99.90
53073;DHT22;38955;48.916;2.336;2023-12-29T07:09:10;11.10;99.90
53073;DHT22;38955;48.916;2.336;2023-12-29T07:11:12;11.10;99.90
53073;DHT22;38955;48.916;2.336;2023-12-29T07:13:14;11.10;99.90
53073;DHT22;38955;48.916;2.336;2023-12-29T07:15:16;11.10;99.90
53073;DHT22;38955;48.916;2.336;2023-12-29T07:17:18;11.10;99.90
53073;DHT22;38955;48.916;2.336;2023-12-29T07:19:22;11.10;99.90
53073;DHT22;38955;48.916;2.336;2023-12-29T07:21:24;11.10;99.90
53073;DHT22;38955;48.916;2.336;2023-12-29T07:23:26;11.10;99.90
53073;DHT22;38955;48.916;2.336;2023-12-29T07:25:28;11.00;99.90
53073;DHT22;38955;48.916;2.336;2023-12-29T07:27:30;11.00;99.90
53073;DHT22;38955;48.916;2.336;2023-12-29T07:29:33;11.00;99.90
53073;DHT22;38955;48.916;2.336;2023-12-29T07:31:38;11.00;99.90
53073;DHT22;38955;48.916;2.336;2023-12-29T07:33:40;11.00;99.90
53073;DHT22;38955;48.916;2.336;2023-12-29T07:35:44;11.00;99.90
53073;DHT22;38955;48.916;2.336;2023-12-29T07:37:46;11.00;99.90
53073;DHT22;38955;48.916;2.336;2023-12-29T07:39:48;10.90;99.90
53073;DHT22;38955;48.916;2.336;2023-12-29T07:41:51;10.90;99.90
53073;DHT22;38955;48.916;2.336;2023-12-29T07:43:53;10.90;99.90
53073;DHT22;38955;48.916;2.336;2023-12-29T07:45:55;10.90;99.90
53073;DHT22;38955;48.916;2.336;2023-12-29T07:47:57;10.80;99.90
53073;DHT22;38955;48.916;2.336;2023-12-29T07:50:00;10.80;99.90
53073;DHT22;38955;48.916;2.336;2023-12-29T07:52:04;10.80;99.90
53073;DHT22;38955;48.916;2.336;2023-12-29T07:54:06;10.70;99.90
53073;DHT22;38955;48.916;2.336;2023-12-29T07:56:10;10.70;99.90
53073;DHT22;38955;48.916;2.336;2023-12-29T07:58:12;10.70;99.90
53073;DHT22;38955;48.916;2.336;2023-12-29T08:00:15;10.70;99.90
53073;DHT22;38955;48.916;2.336;2023-12-29T08:02:17;10.60;99.90
53073;DHT22;38955;48.916;2.336;2023-12-29T08:04:19;10.60;99.90
53073;DHT22;38955;48.916;2.336;2023-12-29T08:06:21;10.60;99.90
53073;DHT22;38955;48.916;2.336;2023-12-29T08:08:24;10.60;99.90
53073;DHT22;38955;48.916;2.336;2023-12-29T08:10:27;10.60;99.90
53073;DHT22;38955;48.916;2.336;2023-12-29T08:12:29;10.60;99.90
53073;DHT22;38955;48.916;2.336;2023-12-29T08:14:31;10.60;99.90
53073;DHT22;38955;48.916;2.336;2023-12-29T08:16:38;10.60;99.90
53073;DHT22;38955;48.916;2.336;2023-12-29T08:18:42;10.60;99.90
53073;DHT22;38955;48.916;2.336;2023-12-29T08:20:44;10.60;99.90
53073;DHT22;38955;48.916;2.336;2023-12-29T08:22:46;10.60;99.90
53073;DHT22;38955;48.916;2.336;2023-12-29T08:24:50;10.60;99.90
53073;DHT22;38955;48.916;2.336;2023-12-29T08:26:52;10.60;99.90
53073;DHT22;38955;48.916;2.336;2023-12-29T08:28:54;10.70;99.90
53073;DHT22;38955;48.916;2.336;2023-12-29T08:30:56;10.70;99.90
53073;DHT22;38955;48.916;2.336;2023-12-29T08:32:59;10.70;99.90
53073;DHT22;38955;48.916;2.336;2023-12-29T08:35:01;10.70;99.90
53073;DHT22;38955;48.916;2.336;2023-12-29T08:37:03;10.70;99.90
53073;DHT22;38955;48.916;2.336;2023-12-29T08:39:05;10.70;99.90
53073;DHT22;38955;48.916;2.336;2023-12-29T08:41:09;10.70;99.90
53073;DHT22;38955;48.916;2.336;2023-12-29T08:43:11;10.80;99.90
53073;DHT22;38955;48.916;2.336;2023-12-29T08:45:13;10.80;99.90
53073;DHT22;38955;48.916;2.336;2023-12-29T08:47:15;10.80;99.90
53073;DHT22;38955;48.916;2.336;2023-12-29T08:49:17;10.80;99.90
53073;DHT22;38955;48.916;2.336;2023-12-29T08:51:20;10.90;99.90
53073;DHT22;38955;48.916;2.336;2023-12-29T08:53:22;10.90;99.90
53073;DHT22;38955;48.916;2.336;2023-12-29T08:55:24;10.90;99.90
53073;DHT22;38955;48.916;2.336;2023-12-29T08:57:27;10.90;99.90
53073;DHT22;38955;48.916;2.336;2023-12-29T08:59:30;11.00;99.90
53073;DHT22;38955;48.916;2.336;2023-12-29T09:01:31;11.00;99.90
53073;DHT22;38955;48.916;2.336;2023-12-29T09:03:35;11.10;99.90
53073;DHT22;38955;48.916;2.336;2023-12-29T09:05:37;11.10;99.90
53073;DHT22;38955;48.916;2.336;2023-12-29T09:07:41;11.20;99.90
53073;DHT22;38955;48.916;2.336;2023-12-29T09:09:43;11.20;99.90
53073;DHT22;38955;48.916;2.336;2023-12-29T09:11:45;11.20;99.90
53073;DHT22;38955;48.916;2.336;2023-12-29T09:13:50;11.30;99.90
53073;DHT22;38955;48.916;2.336;2023-12-29T09:15:53;11.30;99.90
53073;DHT22;38955;48.916;2.336;2023-12-29T09:17:55;11.30;99.90
53073;DHT22;38955;48.916;2.336;2023-12-29T09:19:58;11.30;99.90
53073;DHT22;38955;48.916;2.336;2023-12-29T09:22:10;11.30;99.90
53073;DHT22;38955;48.916;2.336;2023-12-29T09:24:13;11.40;99.90
53073;DHT22;38955;48.916;2.336;2023-12-29T09:26:15;11.40;99.90
53073;DHT22;38955;48.916;2.336;2023-12-29T09:28:17;11.40;99.90
53073;DHT22;38955;48.916;2.336;2023-12-29T09:30:20;11.30;99.90
53073;DHT22;38955;48.916;2.336;2023-12-29T09:32:22;11.40;99.90
53073;DHT22;38955;48.916;2.336;2023-12-29T09:34:24;11.40;99.90
53073;DHT22;38955;48.916;2.336;2023-12-29T09:36:26;11.30;99.90
53073;DHT22;38955;48.916;2.336;2023-12-29T09:38:29;11.40;99.90
53073;DHT22;38955;48.916;2.336;2023-12-29T09:40:31;11.50;99.90
53073;DHT22;38955;48.916;2.336;2023-12-29T09:42:33;11.50;99.90
53073;DHT22;38955;48.916;2.336;2023-12-29T09:44:37;11.60;99.90
53073;DHT22;38955;48.916;2.336;2023-12-29T09:46:41;11.60;99.90
53073;DHT22;38955;48.916;2.336;2023-12-29T09:48:46;11.70;99.90
53073;DHT22;38955;48.916;2.336;2023-12-29T09:50:49;11.70;99.90
53073;DHT22;38955;48.916;2.336;2023-12-29T09:52:53;11.70;99.90
53073;DHT22;38955;48.916;2.336;2023-12-29T09:54:55;11.80;99.90
53073;DHT22;38955;48.916;2.336;2023-12-29T09:56:59;11.90;99.90
53073;DHT22;38955;48.916;2.336;2023-12-29T09:59:03;11.90;99.90
53073;DHT22;38955;48.916;2.336;2023-12-29T10:01:09;11.90;99.90
53073;DHT22;38955;48.916;2.336;2023-12-29T10:03:12;12.00;99.90
53073;DHT22;38955;48.916;2.336;2023-12-29T10:05:15;12.00;99.90
53073;DHT22;38955;48.916;2.336;2023-12-29T10:07:23;12.00;99.90
53073;DHT22;38955;48.916;2.336;2023-12-29T10:09:25;12.00;99.90
53073;DHT22;38955;48.916;2.336;2023-12-29T10:11:29;12.10;99.90
53073;DHT22;38955;48.916;2.336;2023-12-29T10:13:33;12.10;99.90
53073;DHT22;38955;48.916;2.336;2023-12-29T10:15:41;12.10;99.90
53073;DHT22;38955;48.916;2.336;2023-12-29T10:17:56;12.20;99.90
53073;DHT22;38955;48.916;2.336;2023-12-29T10:20:08;12.30;99.90
53073;DHT22;38955;48.916;2.336;2023-12-29T10:22:18;12.40;99.90
53073;DHT22;38955;48.916;2.336;2023-12-29T10:24:21;12.40;99.90
53073;DHT22;38955;48.916;2.336;2023-12-29T10:26:26;12.50;99.90
53073;DHT22;38955;48.916;2.336;2023-12-29T10:28:28;12.50;99.90
53073;DHT22;38955;48.916;2.336;2023-12-29T10:30:31;12.40;99.90
53073;DHT22;38955;48.916;2.336;2023-12-29T10:32:36;12.30;99.90
53073;DHT22;38955;48.916;2.336;2023-12-29T10:34:38;12.30;99.90
53073;DHT22;38955;48.916;2.336;2023-12-29T10:36:47;12.40;99.90
53073;DHT22;38955;48.916;2.336;2023-12-29T10:39:06;12.40;99.90
53073;DHT22;38955;48.916;2.336;2023-12-29T10:41:12;12.40;99.90
53073;DHT22;38955;48.916;2.336;2023-12-29T10:43:22;12.40;99.90
53073;DHT22;38955;48.916;2.336;2023-12-29T10:45:24;12.30;99.90
53073;DHT22;38955;48.916;2.336;2023-12-29T10:47:27;12.30;99.90
53073;DHT22;38955;48.916;2.336;2023-12-29T10:49:29;12.40;99.90
53073;DHT22;38955;48.916;2.336;2023-12-29T10:51:31;12.40;99.90
53073;DHT22;38955;48.916;2.336;2023-12-29T10:53:35;12.40;99.90
53073;DHT22;38955;48.916;2.336;2023-12-29T10:55:42;12.40;99.90
53073;DHT22;38955;48.916;2.336;2023-12-29T10:57:44;12.40;99.90
53073;DHT22;38955;48.916;2.336;2023-12-29T10:59:54;12.40;99.90
53073;DHT22;38955;48.916;2.336;2023-12-29T11:02:00;12.40;99.90
53073;DHT22;38955;48.916;2.336;2023-12-29T11:04:07;12.40;99.90
53073;DHT22;38955;48.916;2.336;2023-12-29T11:06:11;12.50;99.90
53073;DHT22;38955;48.916;2.336;2023-12-29T11:08:18;12.50;99.90
53073;DHT22;38955;48.916;2.336;2023-12-29T11:10:22;12.50;99.90
53073;DHT22;38955;48.916;2.336;2023-12-29T11:12:24;12.40;99.90
53073;DHT22;38955;48.916;2.336;2023-12-29T11:14:27;12.30;99.90
53073;DHT22;38955;48.916;2.336;2023-12-29T11:16:32;12.30;99.90
53073;DHT22;38955;48.916;2.336;2023-12-29T11:18:34;12.30;99.90
53073;DHT22;38955;48.916;2.336;2023-12-29T11:20:39;12.30;99.90
53073;DHT22;38955;48.916;2.336;2023-12-29T11:22:41;12.30;99.90
53073;DHT22;38955;48.916;2.336;2023-12-29T11:24:46;12.30;99.90
53073;DHT22;38955;48.916;2.336;2023-12-29T11:26:50;12.40;99.90
53073;DHT22;38955;48.916;2.336;2023-12-29T11:28:52;12.40;99.90
53073;DHT22;38955;48.916;2.336;2023-12-29T11:30:55;12.40;99.90
53073;DHT22;38955;48.916;2.336;2023-12-29T11:32:59;12.50;99.90
53073;DHT22;38955;48.916;2.336;2023-12-29T11:35:13;12.50;99.90
53073;DHT22;38955;48.916;2.336;2023-12-29T11:37:29;12.50;99.90
53073;DHT22;38955;48.916;2.336;2023-12-29T11:39:40;12.40;99.90
53073;DHT22;38955;48.916;2.336;2023-12-29T11:41:51;12.50;99.90
53073;DHT22;38955;48.916;2.336;2023-12-29T11:43:59;12.50;99.90
53073;DHT22;38955;48.916;2.336;2023-12-29T11:46:01;12.50;99.90
53073;DHT22;38955;48.916;2.336;2023-12-29T11:48:04;12.50;99.90
53073;DHT22;38955;48.916;2.336;2023-12-29T11:50:07;12.40;99.90
53073;DHT22;38955;48.916;2.336;2023-12-29T11:52:10;12.50;99.90
53073;DHT22;38955;48.916;2.336;2023-12-29T11:54:22;12.40;99.90
53073;DHT22;38955;48.916;2.336;2023-12-29T11:56:24;12.40;99.90
53073;DHT22;38955;48.916;2.336;2023-12-29T11:58:27;12.30;99.90
53073;DHT22;38955;48.916;2.336;2023-12-29T12:00:42;12.40;99.90
53073;DHT22;38955;48.916;2.336;2023-12-29T12:02:45;12.50;99.90
53073;DHT22;38955;48.916;2.336;2023-12-29T12:04:47;12.50;99.90
53073;DHT22;38955;48.916;2.336;2023-12-29T12:06:50;12.50;99.90
53073;DHT22;38955;48.916;2.336;2023-12-29T12:09:15;12.50;99.90
53073;DHT22;38955;48.916;2.336;2023-12-29T12:11:42;12.50;99.90
53073;DHT22;38955;48.916;2.336;2023-12-29T12:13:47;12.50;99.90
53073;DHT22;38955;48.916;2.336;2023-12-29T12:15:49;12.60;99.90
53073;DHT22;38955;48.916;2.336;2023-12-29T12:17:52;12.60;99.90
53073;DHT22;38955;48.916;2.336;2023-12-29T12:19:57;12.60;99.90
53073;DHT22;38955;48.916;2.336;2023-12-29T12:21:59;12.60;99.90
53073;DHT22;38955;48.916;2.336;2023-12-29T12:24:03;12.70;99.90
53073;DHT22;38955;48.916;2.336;2023-12-29T12:26:06;12.70;99.90
53073;DHT22;38955;48.916;2.336;2023-12-29T12:28:09;12.80;99.90
53073;DHT22;38955;48.916;2.336;2023-12-29T12:30:18;12.80;99.90
53073;DHT22;38955;48.916;2.336;2023-12-29T12:32:21;12.90;99.90
53073;DHT22;38955;48.916;2.336;2023-12-29T12:34:24;12.90;99.90
53073;DHT22;38955;48.916;2.336;2023-12-29T12:36:27;12.90;99.90
53073;DHT22;38955;48.916;2.336;2023-12-29T12:38:29;13.00;99.90
53073;DHT22;38955;48.916;2.336;2023-12-29T12:40:33;12.90;99.90
53073;DHT22;38955;48.916;2.336;2023-12-29T12:42:38;12.90;99.90
53073;DHT22;38955;48.916;2.336;2023-12-29T12:44:48;12.80;99.90
53073;DHT22;38955;48.916;2.336;2023-12-29T12:47:01;12.80;99.90
53073;DHT22;38955;48.916;2.336;2023-12-29T12:49:08;12.70;99.90
53073;DHT22;38955;48.916;2.336;2023-12-29T12:51:11;12.60;99.90
53073;DHT22;38955;48.916;2.336;2023-12-29T12:53:14;12.50;99.90
53073;DHT22;38955;48.916;2.336;2023-12-29T12:55:22;12.60;99.90
53073;DHT22;38955;48.916;2.336;2023-12-29T12:57:24;12.50;99.90
53073;DHT22;38955;48.916;2.336;2023-12-29T12:59:27;12.50;99.90